ADDS METAR Data INFO
IDs: Format: Raw Decoded Include TAF

Data at: 0454 UTC 20 Apr 2018

KDAB 200353Z 25006KT 10SM FEW015 18/17 A3008 RMK AO2 SLP184 T01830167
KDAB 200253Z 25005KT 10SM CLR 18/17 A3008 RMK AO2 SLP183 T01830167 51013
KDAB 200153Z 23005KT 10SM CLR 21/17 A3007 RMK AO2 SLP182 T02060167
KDAB 200053Z 23006KT 10SM CLR 23/17 A3005 RMK AO2 SLP176 T02280167
KDAB 192353Z 23007KT 10SM FEW055 FEW150 24/17 A3004 RMK AO2 SLP170 T02440167 10294 20244 51003
KDAB 192253Z 23009KT 10SM FEW055 FEW150 27/16 A3003 RMK AO2 SLP169 T02670161
KDAB 192153Z 24013KT 10SM FEW055 28/16 A3003 RMK AO2 SLP169 T02780156
KDAB 192053Z 25014G20KT 10SM SCT055 29/17 A3003 RMK AO2 SLP167 T02890172 58011
KDAB 191953Z 26014G25KT 10SM FEW050 FEW200 29/16 A3004 RMK AO2 SLP171 T02940161
KDAB 191853Z 24013G20KT 10SM FEW045 FEW200 29/17 A3006 RMK AO2 SLP177 T02890172
KDAB 191753Z 21010G21KT 10SM FEW045 FEW200 29/17 A3006 RMK AO2 SLP178 T02890167 10289 20156 56019
KDAB 191653Z 24012G18KT 10SM FEW040 FEW200 28/17 A3007 RMK AO2 SLP183 T02780172
KDAB 191553Z 25012KT 10SM FEW030 26/18 A3010 RMK AO2 SLP191 T02610178
KDAB 191453Z 30010G16KT 10SM FEW025 24/17 A3012 RMK AO2 SLP198 T02440172 51004
KDAB 191353Z 27009KT 10SM FEW020 22/18 A3012 RMK AO2 SLP197 T02170178
KDAB 191253Z 27006KT 10SM FEW020 19/16 A3012 RMK AO2 SLP198 T01890156
KDAB 191153Z 26004KT 10SM CLR 16/14 A3010 RMK AO2 SLP193 T01560139 10172 20139 53017
KDAB 191053Z 20003KT 10SM CLR 14/13 A3007 RMK AO2 SLP183 T01440128
KDAB 190953Z 20005KT 10SM CLR 15/13 A3005 RMK AO2 SLP176 T01500133
KDAB 190853Z 00000KT 10SM CLR 15/13 A3005 RMK AO2 SLP176 T01500128 56006
KDAB 190753Z 21003KT 10SM CLR 16/12 A3006 RMK AO2 SLP177 T01610122
KDAB 190653Z 20005KT 10SM CLR 17/11 A3006 RMK AO2 SLP178 T01670111
KDAB 190553Z 21005KT 10SM CLR 17/11 A3007 RMK AO2 SLP182 T01720111 10233 20172 56010
KDAB 190453Z 20005KT 10SM CLR 18/12 A3008 RMK AO2 SLP185 T01830117 403000106
KDAB 190353Z 19006KT 10SM CLR 19/12 A3008 RMK AO2 SLP186 T01890122
KDAB 190253Z 20004KT 10SM CLR 19/13 A3010 RMK AO2 SLP192 T01940133 53009
KDAB 190153Z 21004KT 10SM CLR 20/14 A3009 RMK AO2 SLP189 T02000139
KDAB 190053Z 17005KT 8SM CLR 22/14 A3008 RMK AO2 SLP184 T02170139
KDAB 182353Z 16003KT 10SM FEW150 FEW250 23/14 A3007 RMK AO2 SLP183 T02330139 10300 20233 53001
KDAB 182253Z VRB04KT 10SM FEW150 FEW250 26/14 A3007 RMK AO2 SLP182 T02610139
KDAB 182153Z 10006KT 10SM FEW080 27/14 A3007 RMK AO2 SLP181 T02670144
KDAB 182053Z VRB06KT 10SM FEW080 28/14 A3007 RMK AO2 SLP182 T02780139 56017
KDAB 181953Z 10008KT 10SM FEW080 28/13 A3008 RMK AO2 SLP185 T02780133
KDAB 181853Z 21007KT 10SM FEW080 29/08 A3010 RMK AO2 SLP192 T02940078
KDAB 181753Z 28004KT 10SM FEW080 28/08 A3012 RMK AO2 SLP199 T02830078 10289 20122 58008